createdAt,value
2018-04-23T00:02:14.395Z,100617.48
2018-04-23T00:04:41.898Z,100612.36
2018-04-23T00:07:09.410Z,100607.94
2018-04-23T00:09:36.949Z,100603.00
2018-04-23T00:12:04.516Z,100602.14
2018-04-23T00:14:32.025Z,100598.55
2018-04-23T00:16:59.571Z,100597.38
2018-04-23T00:19:27.119Z,100589.91
2018-04-23T00:21:54.673Z,100580.66
2018-04-23T00:24:22.208Z,100570.13
2018-04-23T00:26:49.988Z,100570.56
2018-04-23T00:29:17.492Z,100559.50
2018-04-23T00:31:45.317Z,100555.23
2018-04-23T00:34:12.835Z,100560.17
2018-04-23T00:36:40.366Z,100561.70
2018-04-23T00:39:07.929Z,100562.94
2018-04-23T00:41:35.421Z,100561.06
2018-04-23T00:44:02.937Z,100557.29
2018-04-23T00:46:31.151Z,100555.23
2018-04-23T00:48:58.666Z,100548.73
2018-04-23T00:51:26.209Z,100541.55
2018-04-23T00:53:53.839Z,100540.17
2018-04-23T00:56:21.354Z,100538.25
2018-04-23T00:58:48.924Z,100532.78
2018-04-23T01:01:16.482Z,100532.34
2018-04-23T01:03:44.034Z,100522.81
2018-04-23T01:06:11.569Z,100522.64
2018-04-23T01:08:39.129Z,100523.05
2018-04-23T01:11:06.690Z,100524.81
2018-04-23T01:13:34.215Z,100531.09
2018-04-23T01:16:01.778Z,100533.86
2018-04-23T01:18:29.293Z,100527.63
2018-04-23T01:20:56.818Z,100523.14
2018-04-23T01:23:24.495Z,100524.03
2018-04-23T01:25:52.017Z,100520.84
2018-04-23T01:28:19.608Z,100520.27
2018-04-23T01:30:47.111Z,100515.73
2018-04-23T01:33:14.648Z,100526.92
2018-04-23T01:35:42.174Z,100520.86
2018-04-23T01:38:09.736Z,100527.39
2018-04-23T01:40:37.247Z,100534.04
2018-04-23T01:43:04.793Z,100531.77
2018-04-23T01:45:32.538Z,100529.39
2018-04-23T01:48:00.096Z,100528.33
2018-04-23T01:50:27.717Z,100533.97
2018-04-23T01:52:55.252Z,100534.27
2018-04-23T01:55:22.797Z,100534.39
2018-04-23T01:57:50.343Z,100536.15
2018-04-23T02:00:17.880Z,100530.80
2018-04-23T02:02:45.467Z,100533.41
2018-04-23T02:05:13.003Z,100530.49
2018-04-23T02:07:40.543Z,100530.79
2018-04-23T02:10:08.050Z,100537.67
2018-04-23T02:12:35.581Z,100536.90
2018-04-23T02:15:03.198Z,100529.16
2018-04-23T02:17:30.729Z,100528.08
2018-04-23T02:19:58.259Z,100533.22
2018-04-23T02:22:25.793Z,100534.69
2018-04-23T02:24:53.305Z,100537.80
2018-04-23T02:27:20.849Z,100535.84
2018-04-23T02:29:48.389Z,100535.36
2018-04-23T02:32:16.298Z,100538.70
2018-04-23T02:34:43.818Z,100540.99
2018-04-23T02:37:11.349Z,100536.56
2018-04-23T02:39:38.899Z,100546.70
2018-04-23T02:42:06.517Z,100548.33
2018-04-23T02:44:34.070Z,100547.98
2018-04-23T02:47:01.623Z,100542.66
2018-04-23T02:49:29.157Z,100543.51
2018-04-23T02:51:56.692Z,100543.72
2018-04-23T02:54:24.233Z,100540.48
2018-04-23T02:56:51.760Z,100543.69
2018-04-23T02:59:19.335Z,100540.70
2018-04-23T03:01:46.843Z,100541.05
2018-04-23T03:04:14.367Z,100541.13
2018-04-23T03:06:42.148Z,100541.77
2018-04-23T03:09:09.777Z,100540.98
2018-04-23T03:11:37.287Z,100534.94
2018-04-23T03:14:04.849Z,100540.00
2018-04-23T03:16:32.361Z,100549.09
2018-04-23T03:18:59.919Z,100549.91
2018-04-23T03:21:27.717Z,100550.44
2018-04-23T03:23:55.318Z,100547.73
2018-04-23T03:26:22.829Z,100549.23
2018-04-23T03:28:50.362Z,100554.53
2018-04-23T03:31:17.900Z,100554.48
2018-04-23T03:33:45.454Z,100554.52
2018-04-23T03:36:12.951Z,100557.06
2018-04-23T03:38:40.506Z,100564.62
2018-04-23T03:41:08.071Z,100558.51
2018-04-23T03:43:35.619Z,100570.11
2018-04-23T03:46:03.178Z,100563.17
2018-04-23T03:48:30.741Z,100566.60
2018-04-23T03:50:58.650Z,100565.69
2018-04-23T03:53:26.190Z,100569.28
2018-04-23T03:55:53.739Z,100569.28
2018-04-23T03:58:21.358Z,100573.95
2018-04-23T04:00:49.208Z,100573.28
2018-04-23T04:03:16.742Z,100580.00
2018-04-23T04:05:44.527Z,100580.66
2018-04-23T04:08:12.070Z,100589.17
2018-04-23T04:10:39.590Z,100585.20
2018-04-23T04:13:19.072Z,100589.17
2018-04-23T04:15:58.753Z,100584.41
2018-04-23T04:18:38.401Z,100593.08
2018-04-23T04:21:05.926Z,100597.45
2018-04-23T04:23:33.492Z,100599.81
2018-04-23T04:26:01.046Z,100602.52
2018-04-23T04:28:29.427Z,100596.08
2018-04-23T04:30:57.326Z,100609.20
2018-04-23T04:33:24.851Z,100611.44
2018-04-23T04:35:52.380Z,100605.66
2018-04-23T04:38:20.428Z,100620.48
2018-04-23T04:40:47.960Z,100619.39
2018-04-23T04:43:15.478Z,100620.58
2018-04-23T04:45:43.037Z,100618.34
2018-04-23T04:48:10.602Z,100623.43
2018-04-23T04:50:38.147Z,100624.84
2018-04-23T04:53:05.665Z,100620.41
2018-04-23T04:55:33.181Z,100629.41
2018-04-23T04:58:01.093Z,100624.51
2018-04-23T05:00:28.667Z,100615.12
2018-04-23T05:02:56.627Z,100619.77
2018-04-23T05:05:24.492Z,100610.58
2018-04-23T05:07:52.002Z,100620.27
2018-04-23T05:10:19.609Z,100616.80
2018-04-23T05:12:47.187Z,100618.59
2018-04-23T05:15:14.706Z,100620.44
2018-04-23T05:17:42.299Z,100619.72
2018-04-23T05:20:09.837Z,100621.72
2018-04-23T05:22:37.413Z,100631.88
2018-04-23T05:25:04.972Z,100632.12
2018-04-23T05:27:32.503Z,100636.56
2018-04-23T05:30:00.059Z,100629.02
2018-04-23T05:32:27.574Z,100633.02
2018-04-23T05:34:55.438Z,100630.84
2018-04-23T05:37:23.108Z,100629.31
2018-04-23T05:39:51.071Z,100630.58
2018-04-23T05:42:18.568Z,100637.19
2018-04-23T05:44:46.396Z,100634.10
2018-04-23T05:47:14.051Z,100637.93
2018-04-23T05:49:41.596Z,100642.45
2018-04-23T05:52:09.127Z,100642.47
2018-04-23T05:54:36.669Z,100643.19
2018-04-23T05:57:04.269Z,100643.52
2018-04-23T05:59:31.799Z,100643.83
2018-04-23T06:01:59.320Z,100645.52
2018-04-23T06:04:26.851Z,100637.67
2018-04-23T06:06:54.372Z,100652.72
2018-04-23T06:09:21.892Z,100662.62
2018-04-23T06:11:49.429Z,100663.75
2018-04-23T06:14:17.118Z,100657.11
2018-04-23T06:16:44.680Z,100668.90
2018-04-23T06:19:12.760Z,100669.17
2018-04-23T06:21:40.716Z,100669.16
2018-04-23T06:24:08.322Z,100662.53
2018-04-23T06:26:35.861Z,100666.67
2018-04-23T06:29:03.413Z,100668.58
2018-04-23T06:31:30.958Z,100656.16
2018-04-23T06:33:58.490Z,100656.79
2018-04-23T06:36:26.083Z,100661.48
2018-04-23T06:38:57.062Z,100651.05
2018-04-23T06:41:24.660Z,100651.30
2018-04-23T06:43:52.790Z,100654.07
2018-04-23T06:46:20.334Z,100652.45
2018-04-23T06:48:48.070Z,100650.58
2018-04-23T06:51:17.698Z,100646.41
2018-04-23T06:53:45.289Z,100643.74
2018-04-23T06:56:12.833Z,100644.34
2018-04-23T06:58:40.374Z,100630.89
2018-04-23T07:01:07.927Z,100638.58
2018-04-23T07:03:35.658Z,100649.48
2018-04-23T07:06:04.099Z,100644.91
2018-04-23T07:08:31.944Z,100643.60
2018-04-23T07:11:00.607Z,100627.12
2018-04-23T07:13:28.869Z,100619.53
2018-04-23T07:15:59.406Z,100600.91
2018-04-23T07:18:27.751Z,100593.95
2018-04-23T07:20:55.309Z,100590.00
2018-04-23T07:23:22.903Z,100579.02
2018-04-23T07:25:50.445Z,100584.56
2018-04-23T07:28:17.971Z,100588.23
2018-04-23T07:30:45.507Z,100588.05
2018-04-23T07:33:13.285Z,100581.24
2018-04-23T07:35:42.600Z,100588.75
2018-04-23T07:38:10.197Z,100593.68
2018-04-23T07:40:40.461Z,100590.58
2018-04-23T07:43:08.390Z,100601.06
2018-04-23T07:45:36.577Z,100603.89
2018-04-23T07:48:04.556Z,100609.77
2018-04-23T07:50:32.101Z,100606.91
2018-04-23T07:52:59.629Z,100607.55
2018-04-23T07:55:27.327Z,100608.94
2018-04-23T07:57:54.942Z,100615.77
2018-04-23T08:00:22.540Z,100614.56
2018-04-23T08:02:51.178Z,100613.47
2018-04-23T08:05:19.658Z,100601.00
2018-04-23T08:07:47.441Z,100599.00
2018-04-23T08:10:15.085Z,100601.85
2018-04-23T08:12:42.661Z,100608.70
2018-04-23T08:15:12.099Z,100616.67
2018-04-23T08:17:39.653Z,100614.41
2018-04-23T08:20:07.215Z,100625.50
2018-04-23T08:22:35.622Z,100625.92
2018-04-23T08:25:04.874Z,100620.80
2018-04-23T08:27:32.566Z,100633.21
2018-04-23T08:30:00.191Z,100638.16
2018-04-23T08:32:27.729Z,100639.07
2018-04-23T08:34:55.519Z,100643.32
2018-04-23T08:37:23.385Z,100644.84
2018-04-23T08:39:50.927Z,100645.41
2018-04-23T08:42:21.657Z,100653.97
2018-04-23T08:44:49.170Z,100657.52
2018-04-23T08:47:24.317Z,100660.37
2018-04-23T08:49:53.736Z,100662.80
2018-04-23T08:52:24.405Z,100670.02
2018-04-23T08:54:55.191Z,100668.56
2018-04-23T08:57:26.691Z,100669.35
2018-04-23T08:59:55.981Z,100666.00
2018-04-23T09:02:23.589Z,100664.80
2018-04-23T09:04:53.203Z,100662.25
2018-04-23T09:07:20.770Z,100676.33
2018-04-23T09:09:49.762Z,100678.13
2018-04-23T09:12:17.490Z,100685.00
2018-04-23T09:14:45.014Z,100688.66
2018-04-23T09:17:12.699Z,100693.55
2018-04-23T09:19:40.236Z,100689.39
2018-04-23T09:22:07.782Z,100689.28
2018-04-23T09:24:35.346Z,100697.35
2018-04-23T09:27:02.950Z,100691.76
2018-04-23T09:29:30.481Z,100707.92
2018-04-23T09:31:58.508Z,100697.99
2018-04-23T09:34:26.038Z,100704.85
2018-04-23T09:36:53.621Z,100708.66
2018-04-23T09:39:21.177Z,100710.30
2018-04-23T09:41:48.760Z,100722.25
2018-04-23T09:44:16.287Z,100721.57
2018-04-23T09:46:44.272Z,100718.91
2018-04-23T09:49:12.142Z,100723.30
2018-04-23T09:51:39.696Z,100721.73
2018-04-23T09:54:07.205Z,100724.17
2018-04-23T09:56:34.734Z,100731.20
2018-04-23T09:59:02.317Z,100726.80
2018-04-23T10:01:29.846Z,100726.88
2018-04-23T10:04:03.039Z,100731.33
2018-04-23T10:06:30.579Z,100727.38
2018-04-23T10:08:58.128Z,100728.39
2018-04-23T10:11:26.248Z,100725.59
2018-04-23T10:13:53.834Z,100723.89
2018-04-23T10:16:21.395Z,100718.41
2018-04-23T10:18:48.936Z,100715.14
2018-04-23T10:21:16.527Z,100715.57
2018-04-23T10:23:44.114Z,100709.64
2018-04-23T10:26:11.676Z,100702.75
2018-04-23T10:28:39.400Z,100700.88
2018-04-23T10:31:06.942Z,100710.50
2018-04-23T10:33:35.350Z,100696.80
2018-04-23T10:36:03.846Z,100704.36
2018-04-23T10:38:31.523Z,100707.33
2018-04-23T10:40:59.291Z,100701.35
2018-04-23T10:43:26.844Z,100697.13
2018-04-23T10:45:54.437Z,100701.39
2018-04-23T10:48:22.313Z,100700.39
2018-04-23T10:50:49.836Z,100687.85
2018-04-23T10:53:17.367Z,100684.53
2018-04-23T10:55:44.948Z,100675.07
2018-04-23T10:58:12.494Z,100675.86
2018-04-23T11:00:40.022Z,100677.30
2018-04-23T11:03:07.580Z,100673.50
2018-04-23T11:05:35.124Z,100672.11
2018-04-23T11:08:02.656Z,100678.05
2018-04-23T11:10:30.212Z,100678.23
2018-04-23T11:12:57.773Z,100680.05
2018-04-23T11:15:25.572Z,100680.87
2018-04-23T11:17:53.207Z,100687.06
2018-04-23T11:20:20.854Z,100689.73
2018-04-23T11:22:48.405Z,100677.34
2018-04-23T11:25:16.068Z,100671.20
2018-04-23T11:27:44.699Z,100681.02
2018-04-23T11:30:12.245Z,100691.12
2018-04-23T11:32:39.819Z,100689.22
2018-04-23T11:35:07.692Z,100693.59
2018-04-23T11:37:35.248Z,100679.73
2018-04-23T11:40:02.850Z,100681.95
2018-04-23T11:42:30.852Z,100673.41
2018-04-23T11:44:58.409Z,100666.78
2018-04-23T11:47:30.088Z,100679.03
2018-04-23T11:49:57.704Z,100673.23
2018-04-23T11:52:25.247Z,100679.72
2018-04-23T11:54:53.912Z,100670.66
2018-04-23T11:57:21.569Z,100681.22
2018-04-23T11:59:49.143Z,100682.44
2018-04-23T12:02:16.728Z,100683.47
2018-04-23T12:04:44.642Z,100685.41
2018-04-23T12:07:13.287Z,100675.81
2018-04-23T12:09:40.835Z,100678.83
2018-04-23T12:12:08.683Z,100681.56
2018-04-23T12:14:36.533Z,100682.03
2018-04-23T12:17:05.119Z,100679.59
2018-04-23T12:19:32.741Z,100674.19
2018-04-23T12:22:00.337Z,100685.05
2018-04-23T12:24:28.085Z,100685.64
2018-04-23T12:26:55.976Z,100686.05
2018-04-23T12:29:23.526Z,100682.03
2018-04-23T12:31:51.090Z,100683.80
2018-04-23T12:34:18.754Z,100681.03
2018-04-23T12:36:46.314Z,100677.13
2018-04-23T12:39:13.859Z,100671.10
2018-04-23T12:41:41.397Z,100667.35
2018-04-23T12:44:08.955Z,100666.64
2018-04-23T12:46:36.517Z,100654.25
2018-04-23T12:49:04.045Z,100652.11
2018-04-23T12:51:31.599Z,100659.74
2018-04-23T12:53:59.471Z,100654.70
2018-04-23T12:56:27.013Z,100651.23
2018-04-23T12:58:55.543Z,100654.91
2018-04-23T13:01:23.227Z,100659.85
2018-04-23T13:03:50.776Z,100640.33
2018-04-23T13:06:18.387Z,100648.64
2018-04-23T13:08:45.946Z,100646.41
2018-04-23T13:11:13.515Z,100645.94
2018-04-23T13:13:41.073Z,100651.00
2018-04-23T13:16:08.688Z,100662.08
2018-04-23T13:18:36.257Z,100652.55
2018-04-23T13:21:03.832Z,100667.77
2018-04-23T13:23:31.753Z,100653.99
2018-04-23T13:25:59.412Z,100657.20
2018-04-23T13:28:26.975Z,100666.53
2018-04-23T13:30:54.570Z,100654.73
2018-04-23T13:33:22.082Z,100645.30
2018-04-23T13:35:49.609Z,100650.52
2018-04-23T13:38:17.318Z,100644.41
2018-04-23T13:40:44.870Z,100642.33
2018-04-23T13:43:12.384Z,100642.84
2018-04-23T13:45:39.950Z,100637.32
2018-04-23T13:48:07.525Z,100644.63
2018-04-23T13:50:35.200Z,100639.77
2018-04-23T13:53:02.752Z,100637.45
2018-04-23T13:55:30.299Z,100638.31
2018-04-23T13:57:57.837Z,100634.28
2018-04-23T14:00:25.490Z,100644.13
2018-04-23T14:02:53.045Z,100643.13
2018-04-23T14:05:20.649Z,100636.95
2018-04-23T14:07:48.248Z,100644.08
2018-04-23T14:10:15.807Z,100639.02
2018-04-23T14:12:43.363Z,100634.23
2018-04-23T14:15:10.919Z,100628.89
2018-04-23T14:17:38.531Z,100630.83
2018-04-23T14:20:06.003Z,100639.11
2018-04-23T14:22:33.566Z,100636.12
2018-04-23T14:25:01.166Z,100640.09
2018-04-23T14:27:28.723Z,100631.21
2018-04-23T14:29:56.297Z,100626.17
2018-04-23T14:32:23.913Z,100633.05
2018-04-23T14:34:51.508Z,100624.54
2018-04-23T14:37:19.028Z,100638.64
2018-04-23T14:39:46.641Z,100631.66
2018-04-23T14:42:14.188Z,100636.76
2018-04-23T14:44:43.256Z,100643.20
2018-04-23T14:47:10.860Z,100643.89
2018-04-23T14:49:38.408Z,100653.22
2018-04-23T14:52:05.998Z,100652.71
2018-04-23T14:54:34.271Z,100663.44
2018-04-23T14:57:03.498Z,100660.86
2018-04-23T14:59:31.261Z,100668.08
2018-04-23T15:01:58.804Z,100675.39
2018-04-23T15:04:27.246Z,100667.67
2018-04-23T15:06:54.987Z,100666.48
2018-04-23T15:09:22.621Z,100669.89
2018-04-23T15:11:50.306Z,100664.88
2018-04-23T15:14:18.239Z,100668.78
2018-04-23T15:16:45.921Z,100673.30
2018-04-23T15:19:13.490Z,100666.91
2018-04-23T15:21:42.005Z,100662.23
2018-04-23T15:24:09.808Z,100666.44
2018-04-23T15:26:37.847Z,100664.63
2018-04-23T15:29:05.401Z,100672.48
2018-04-23T15:31:32.945Z,100669.72
2018-04-23T15:34:00.498Z,100669.55
2018-04-23T15:36:28.320Z,100671.00
2018-04-23T15:38:55.902Z,100677.55
2018-04-23T15:41:23.436Z,100673.63
2018-04-23T15:43:51.038Z,100662.47
2018-04-23T15:46:18.589Z,100682.02
2018-04-23T15:48:46.137Z,100678.02
2018-04-23T15:51:13.678Z,100677.50
2018-04-23T15:53:41.215Z,100684.30
2018-04-23T15:56:08.771Z,100679.11
2018-04-23T15:58:36.295Z,100670.28
2018-04-23T16:01:03.816Z,100672.44
2018-04-23T16:03:32.537Z,100669.55
2018-04-23T16:06:00.071Z,100670.16
2018-04-23T16:08:27.682Z,100674.16
2018-04-23T16:10:55.489Z,100676.27
2018-04-23T16:13:23.046Z,100682.91
2018-04-23T16:15:50.675Z,100687.56
2018-04-23T16:18:19.202Z,100695.66
2018-04-23T16:20:46.752Z,100691.47
2018-04-23T16:23:14.311Z,100681.05
2018-04-23T16:25:42.895Z,100691.27
2018-04-23T16:28:10.462Z,100692.39
2018-04-23T16:30:38.144Z,100699.62
2018-04-23T16:33:05.674Z,100717.84
2018-04-23T16:35:33.341Z,100705.20
2018-04-23T16:38:00.891Z,100708.50
2018-04-23T16:40:28.424Z,100717.73
2018-04-23T16:42:55.947Z,100712.27
2018-04-23T16:45:23.473Z,100703.33
2018-04-23T16:47:51.026Z,100720.21
2018-04-23T16:50:18.611Z,100716.38
2018-04-23T16:52:46.381Z,100717.00
2018-04-23T16:55:13.925Z,100724.58
2018-04-23T16:57:43.241Z,100718.73
2018-04-23T17:00:10.900Z,100715.43
2018-04-23T17:02:38.666Z,100719.75
2018-04-23T17:05:06.310Z,100716.54
2018-04-23T17:07:33.843Z,100726.55
2018-04-23T17:10:01.392Z,100722.14
2018-04-23T17:12:28.989Z,100725.09
2018-04-23T17:14:57.487Z,100739.69
2018-04-23T17:17:25.038Z,100744.36
2018-04-23T17:19:52.570Z,100742.59
2018-04-23T17:22:20.370Z,100754.93
2018-04-23T17:24:47.921Z,100760.78
2018-04-23T17:27:15.444Z,100765.68
2018-04-23T17:29:42.971Z,100768.80
2018-04-23T17:32:10.558Z,100769.17
2018-04-23T17:34:38.493Z,100770.47
2018-04-23T17:37:06.196Z,100771.93
2018-04-23T17:39:33.844Z,100778.97
2018-04-23T17:42:01.395Z,100788.39
2018-04-23T17:44:28.981Z,100789.87
2018-04-23T17:46:56.579Z,100786.33
2018-04-23T17:49:24.471Z,100797.50
2018-04-23T17:51:52.331Z,100792.54
2018-04-23T17:54:20.201Z,100796.23
2018-04-23T17:56:47.781Z,100803.10
2018-04-23T17:59:15.447Z,100800.75
2018-04-23T18:01:42.982Z,100809.56
2018-04-23T18:04:10.550Z,100814.21
2018-04-23T18:06:38.049Z,100810.77
2018-04-23T18:09:06.518Z,100818.69
2018-04-23T18:11:34.068Z,100824.69
2018-04-23T18:14:01.646Z,100827.28
2018-04-23T18:16:29.464Z,100828.05
2018-04-23T18:18:56.990Z,100835.48
2018-04-23T18:21:24.525Z,100834.27
2018-04-23T18:23:52.075Z,100841.63
2018-04-23T18:26:19.607Z,100848.55
2018-04-23T18:28:47.282Z,100851.80
2018-04-23T18:31:14.816Z,100855.31
2018-04-23T18:33:42.350Z,100863.86
2018-04-23T18:36:09.896Z,100863.22
2018-04-23T18:38:37.672Z,100873.46
2018-04-23T18:41:05.235Z,100867.30
2018-04-23T18:43:32.946Z,100868.63
2018-04-23T18:46:00.501Z,100871.19
2018-04-23T18:48:28.022Z,100879.77
2018-04-23T18:50:55.631Z,100880.06
2018-04-23T18:53:23.138Z,100882.36
2018-04-23T18:55:50.956Z,100885.86
2018-04-23T18:58:18.497Z,100882.62
2018-04-23T19:00:46.064Z,100884.52
2018-04-23T19:03:13.839Z,100889.47
2018-04-23T19:05:41.429Z,100889.69
2018-04-23T19:08:09.363Z,100896.16
2018-04-23T19:10:36.935Z,100897.52
2018-04-23T19:13:04.467Z,100899.62
2018-04-23T19:15:32.081Z,100904.01
2018-04-23T19:17:59.632Z,100901.63
2018-04-23T19:20:27.152Z,100908.68
2018-04-23T19:22:54.709Z,100913.77
2018-04-23T19:25:22.373Z,100924.29
2018-04-23T19:27:50.040Z,100922.59
2018-04-23T19:30:17.663Z,100922.54
2018-04-23T19:32:47.170Z,100922.41
2018-04-23T19:35:15.480Z,100920.01
2018-04-23T19:37:43.057Z,100924.28
2018-04-23T19:40:10.603Z,100927.41
2018-04-23T19:42:38.224Z,100927.05
2018-04-23T19:45:05.763Z,100928.63
2018-04-23T19:47:33.316Z,100929.34
2018-04-23T19:50:00.882Z,100925.77
2018-04-23T19:52:28.509Z,100935.10
2018-04-23T19:54:56.096Z,100935.13
2018-04-23T19:57:23.661Z,100932.83
2018-04-23T19:59:51.214Z,100936.78
2018-04-23T20:02:19.384Z,100935.42
2018-04-23T20:04:46.946Z,100936.47
2018-04-23T20:07:14.474Z,100937.25
2018-04-23T20:09:42.030Z,100930.59
2018-04-23T20:12:09.552Z,100933.72
2018-04-23T20:14:37.123Z,100933.67
2018-04-23T20:17:04.735Z,100938.42
2018-04-23T20:19:32.272Z,100938.48
2018-04-23T20:21:59.813Z,100942.28
2018-04-23T20:24:27.387Z,100944.56
2018-04-23T20:26:55.163Z,100951.69
2018-04-23T20:29:22.711Z,100944.40
2018-04-23T20:31:50.454Z,100948.36
2018-04-23T20:34:18.120Z,100952.20
2018-04-23T20:36:45.665Z,100940.89
2018-04-23T20:39:13.228Z,100944.94
2018-04-23T20:41:40.750Z,100946.16
2018-04-23T20:44:08.553Z,100943.57
2018-04-23T20:46:36.234Z,100948.63
2018-04-23T20:49:03.784Z,100945.42
2018-04-23T20:51:31.307Z,100944.38
2018-04-23T20:53:58.829Z,100945.64
2018-04-23T20:56:26.663Z,100943.83
2018-04-23T20:58:54.172Z,100948.83
2018-04-23T21:01:21.918Z,100954.75
2018-04-23T21:03:49.448Z,100957.61
2018-04-23T21:06:17.043Z,100953.58
2018-04-23T21:08:44.872Z,100954.92
2018-04-23T21:11:12.473Z,100959.02
2018-04-23T21:13:40.296Z,100955.80
2018-04-23T21:16:07.863Z,100960.09
2018-04-23T21:18:35.406Z,100957.12
2018-04-23T21:21:03.182Z,100968.31
2018-04-23T21:23:30.704Z,100962.79
2018-04-23T21:25:58.402Z,100963.34
2018-04-23T21:28:25.917Z,100966.31
2018-04-23T21:30:53.534Z,100966.48
2018-04-23T21:33:21.305Z,100961.23
2018-04-23T21:35:48.825Z,100963.16
2018-04-23T21:38:16.343Z,100965.28
2018-04-23T21:40:43.875Z,100961.13
2018-04-23T21:43:11.445Z,100967.56
2018-04-23T21:45:38.972Z,100956.73
2018-04-23T21:48:06.780Z,100958.31
2018-04-23T21:50:34.337Z,100961.63
2018-04-23T21:53:01.948Z,100962.86
2018-04-23T21:55:29.481Z,100960.48
2018-04-23T21:57:56.982Z,100962.77
2018-04-23T22:00:24.546Z,100965.81
2018-04-23T22:02:52.197Z,100966.64
2018-04-23T22:05:19.779Z,100969.92
2018-04-23T22:07:47.304Z,100970.69
2018-04-23T22:10:14.901Z,100972.64
2018-04-23T22:12:42.415Z,100969.55
2018-04-23T22:15:09.930Z,100982.84
2018-04-23T22:17:37.461Z,100980.84
2018-04-23T22:20:04.981Z,100982.49
2018-04-23T22:22:32.497Z,100981.55
2018-04-23T22:25:00.045Z,100989.20
2018-04-23T22:27:27.839Z,100988.33
2018-04-23T22:29:55.705Z,100990.23
2018-04-23T22:32:23.469Z,100987.72
2018-04-23T22:34:51.019Z,100994.23
2018-04-23T22:37:18.622Z,100985.10
2018-04-23T22:39:46.461Z,100988.19
2018-04-23T22:42:14.245Z,100995.05
2018-04-23T22:44:41.799Z,101005.94
2018-04-23T22:47:09.338Z,101001.17
2018-04-23T22:49:37.228Z,100993.91
2018-04-23T22:52:04.758Z,100999.02
2018-04-23T22:54:32.327Z,101001.58
2018-04-23T22:56:59.915Z,101000.13
2018-04-23T22:59:27.475Z,101006.86
2018-04-23T23:01:56.480Z,101013.84
2018-04-23T23:04:24.129Z,101010.52
2018-04-23T23:06:51.842Z,101019.35
2018-04-23T23:09:19.370Z,101027.30
2018-04-23T23:11:46.921Z,101028.03
2018-04-23T23:14:14.469Z,101023.08
2018-04-23T23:16:42.137Z,101026.50
2018-04-23T23:19:09.653Z,101022.56
2018-04-23T23:21:37.158Z,101024.43
2018-04-23T23:24:04.717Z,101017.07
2018-04-23T23:26:32.239Z,101021.83
2018-04-23T23:28:59.763Z,101025.86
2018-04-23T23:31:27.298Z,101026.91
2018-04-23T23:33:54.908Z,101020.89
2018-04-23T23:36:22.448Z,101023.27
2018-04-23T23:38:49.974Z,101026.08
2018-04-23T23:41:17.485Z,101030.11
2018-04-23T23:43:45.018Z,101026.17
2018-04-23T23:46:12.540Z,101026.40
2018-04-23T23:48:40.082Z,101032.50
2018-04-23T23:51:07.596Z,101027.95
2018-04-23T23:53:35.432Z,101023.08
2018-04-23T23:56:03.294Z,101031.58
2018-04-23T23:58:30.927Z,101031.08
